createdAt,value
2023-02-08T00:01:27.164Z,52.88
2023-02-08T00:03:55.573Z,45.20
2023-02-08T00:06:23.840Z,43.13
2023-02-08T00:08:52.226Z,42.78
2023-02-08T00:11:22.067Z,48.30
2023-02-08T00:13:50.316Z,42.95
2023-02-08T00:16:19.709Z,44.28
2023-02-08T00:18:48.161Z,46.67
2023-02-08T00:21:18.451Z,40.58
2023-02-08T00:23:47.899Z,44.03
2023-02-08T00:26:16.886Z,43.50
2023-02-08T00:28:46.446Z,41.83
2023-02-08T00:31:15.065Z,48.75
2023-02-08T00:33:43.441Z,50.40
2023-02-08T00:36:12.914Z,42.13
2023-02-08T00:38:41.345Z,38.60
2023-02-08T00:41:10.078Z,40.78
2023-02-08T00:43:38.319Z,38.42
2023-02-08T00:46:09.718Z,37.42
2023-02-08T00:48:38.158Z,37.50
2023-02-08T00:51:08.880Z,35.72
2023-02-08T00:53:38.492Z,37.88
2023-02-08T00:56:07.959Z,37.97
2023-02-08T00:58:36.657Z,40.83
2023-02-08T01:01:08.915Z,40.15
2023-02-08T01:03:39.590Z,36.90
2023-02-08T01:06:14.964Z,37.95
2023-02-08T01:08:43.419Z,41.38
2023-02-08T01:11:14.238Z,40.97
2023-02-08T01:13:42.880Z,44.15
2023-02-08T01:16:15.077Z,43.33
2023-02-08T01:18:45.072Z,43.63
2023-02-08T01:21:16.867Z,47.03
2023-02-08T01:23:46.999Z,46.42
2023-02-08T01:26:16.615Z,47.78
2023-02-08T01:28:45.146Z,47.75
2023-02-08T01:31:16.920Z,46.67
2023-02-08T01:33:45.618Z,48.00
2023-02-08T01:36:14.267Z,48.60
2023-02-08T01:38:42.526Z,47.47
2023-02-08T01:41:17.419Z,49.15
2023-02-08T01:44:07.488Z,48.85
2023-02-08T01:46:38.922Z,48.83
2023-02-08T01:49:10.858Z,47.97
2023-02-08T01:51:42.534Z,49.42
2023-02-08T01:54:14.151Z,52.10
2023-02-08T01:56:45.808Z,52.58
2023-02-08T01:59:18.565Z,52.83
2023-02-08T02:01:52.020Z,54.70
2023-02-08T02:04:20.862Z,51.53
2023-02-08T02:06:52.407Z,48.88
2023-02-08T02:09:34.846Z,54.45
2023-02-08T02:12:03.512Z,50.90
2023-02-08T02:14:32.965Z,55.72
2023-02-08T02:17:03.003Z,56.05
2023-02-08T02:19:40.614Z,53.25
2023-02-08T02:22:27.211Z,52.33
2023-02-08T02:25:28.711Z,50.90
2023-02-08T02:28:25.981Z,55.97
2023-02-08T02:31:36.863Z,50.50
2023-02-08T02:34:08.594Z,48.35
2023-02-08T02:36:47.487Z,44.33
2023-02-08T02:39:22.525Z,45.10
2023-02-08T02:42:15.641Z,46.10
2023-02-08T02:44:53.872Z,44.03
2023-02-08T02:47:28.778Z,38.88
2023-02-08T02:50:06.021Z,36.47
2023-02-08T02:52:40.557Z,40.95
2023-02-08T02:55:12.946Z,37.17
2023-02-08T02:57:45.500Z,42.05
2023-02-08T03:00:20.080Z,42.22
2023-02-08T03:02:49.741Z,39.05
2023-02-08T03:05:18.435Z,39.67
2023-02-08T03:08:17.290Z,39.25
2023-02-08T03:10:56.081Z,34.95
2023-02-08T03:13:39.101Z,37.40
2023-02-08T03:16:18.701Z,38.03
2023-02-08T03:19:02.603Z,36.38
2023-02-08T03:24:15.973Z,33.78
2023-02-08T03:26:54.221Z,34.88
2023-02-08T03:29:38.383Z,35.80
2023-02-08T03:32:11.182Z,33.67
2023-02-08T03:34:47.824Z,37.38
2023-02-08T03:37:21.469Z,37.08
2023-02-08T03:39:53.118Z,37.85
2023-02-08T03:42:26.535Z,39.25
2023-02-08T03:44:59.816Z,38.30
2023-02-08T03:47:30.816Z,43.55
2023-02-08T03:50:05.017Z,43.10
2023-02-08T03:52:35.742Z,40.35
2023-02-08T03:55:08.274Z,38.47
2023-02-08T03:57:42.041Z,41.33
2023-02-08T04:00:14.596Z,44.28
2023-02-08T04:02:49.081Z,43.10
2023-02-08T04:05:19.441Z,41.88
2023-02-08T04:07:47.830Z,41.33
2023-02-08T04:10:16.428Z,45.00
2023-02-08T04:12:44.748Z,46.97
2023-02-08T04:15:13.087Z,41.53
2023-02-08T04:17:41.500Z,44.67
2023-02-08T04:20:10.640Z,47.63
2023-02-08T04:22:40.976Z,43.25
2023-02-08T04:25:09.778Z,43.70
2023-02-08T04:27:37.964Z,45.05
2023-02-08T04:30:07.117Z,45.67
2023-02-08T04:32:35.575Z,46.30
2023-02-08T04:35:03.880Z,45.85
2023-02-08T04:37:32.339Z,46.83
2023-02-08T04:40:02.297Z,47.70
2023-02-08T04:42:30.532Z,47.78
2023-02-08T04:44:59.180Z,47.45
2023-02-08T04:47:27.734Z,45.72
2023-02-08T04:49:55.919Z,40.75
2023-02-08T04:52:24.277Z,44.70
2023-02-08T04:54:52.838Z,41.17
2023-02-08T04:57:22.737Z,38.17
2023-02-08T04:59:50.958Z,40.67
2023-02-08T05:02:19.373Z,42.35
2023-02-08T05:04:47.750Z,43.13
2023-02-08T05:07:15.976Z,40.90
2023-02-08T05:09:44.488Z,41.95
2023-02-08T05:12:12.885Z,39.03
2023-02-08T05:14:42.559Z,40.63
2023-02-08T05:17:12.766Z,44.65
2023-02-08T05:19:41.081Z,43.35
2023-02-08T05:22:09.288Z,45.22
2023-02-08T05:24:37.723Z,47.33
2023-02-08T05:27:06.084Z,45.97
2023-02-08T05:29:34.233Z,45.30
2023-02-08T05:32:04.083Z,45.83
2023-02-08T05:34:32.445Z,45.38
2023-02-08T05:37:00.762Z,42.55
2023-02-08T05:39:29.093Z,43.03
2023-02-08T05:41:57.673Z,45.42
2023-02-08T05:44:25.852Z,48.60
2023-02-08T05:46:54.125Z,47.40
2023-02-08T05:49:24.134Z,45.70
2023-02-08T05:51:52.314Z,44.35
2023-02-08T05:54:20.528Z,47.25
2023-02-08T05:56:49.144Z,45.63
2023-02-08T05:59:17.383Z,49.15
2023-02-08T06:01:45.558Z,50.80
2023-02-08T06:04:14.447Z,47.38
2023-02-08T06:06:44.013Z,48.65
2023-02-08T06:09:12.213Z,47.08
2023-02-08T06:11:41.028Z,50.42
2023-02-08T06:14:09.235Z,50.83
2023-02-08T06:16:37.463Z,50.67
2023-02-08T06:19:05.914Z,52.88
2023-02-08T06:21:34.294Z,53.03
2023-02-08T06:24:07.109Z,48.90
2023-02-08T06:26:35.826Z,47.00
2023-02-08T06:29:04.311Z,45.80
2023-02-08T06:31:32.768Z,54.25
2023-02-08T06:34:01.220Z,52.55
2023-02-08T06:36:29.572Z,49.20
2023-02-08T06:38:58.025Z,48.47
2023-02-08T06:41:27.663Z,52.42
2023-02-08T06:43:59.420Z,50.38
2023-02-08T06:46:27.714Z,49.35
2023-02-08T06:48:58.070Z,51.05
2023-02-08T06:51:26.390Z,53.33
2023-02-08T06:53:54.656Z,51.03
2023-02-08T06:56:22.816Z,48.28
2023-02-08T06:58:52.416Z,47.53
2023-02-08T07:01:20.719Z,48.92
2023-02-08T07:03:48.857Z,51.03
2023-02-08T07:06:19.120Z,49.42
2023-02-08T07:08:47.949Z,52.10
2023-02-08T07:11:18.400Z,50.35
2023-02-08T07:13:49.478Z,44.80
2023-02-08T07:16:20.721Z,49.28
2023-02-08T07:18:49.158Z,46.10
2023-02-08T07:21:17.728Z,49.45
2023-02-08T07:23:45.963Z,53.75
2023-02-08T07:26:15.575Z,46.85
2023-02-08T07:28:44.371Z,52.10
2023-02-08T07:31:14.286Z,51.78
2023-02-08T07:33:44.743Z,49.05
2023-02-08T07:36:13.467Z,53.15
2023-02-08T07:38:41.645Z,55.85
2023-02-08T07:41:12.136Z,49.03
2023-02-08T07:43:43.159Z,53.72
2023-02-08T07:46:13.540Z,51.60
2023-02-08T07:48:43.443Z,47.22
2023-02-08T07:51:12.623Z,49.42
2023-02-08T07:53:41.151Z,46.28
2023-02-08T07:56:10.561Z,40.70
2023-02-08T07:58:39.111Z,35.10
2023-02-08T08:01:21.449Z,37.83
2023-02-08T08:03:53.402Z,41.60
2023-02-08T08:06:23.069Z,30.00
2023-02-08T08:08:52.220Z,30.88
2023-02-08T08:11:22.061Z,30.48
2023-02-08T08:13:50.834Z,32.47
2023-02-08T08:16:19.638Z,29.10
2023-02-08T08:18:48.656Z,29.95
2023-02-08T08:21:18.614Z,31.67
2023-02-08T08:23:46.781Z,30.38
2023-02-08T08:26:17.694Z,29.45
2023-02-08T08:28:47.389Z,30.15
2023-02-08T08:31:18.256Z,31.92
2023-02-08T08:33:46.781Z,29.08
2023-02-08T08:36:15.121Z,27.90
2023-02-08T08:38:45.000Z,26.40
2023-02-08T08:41:17.321Z,27.17
2023-02-08T08:43:45.763Z,29.23
2023-02-08T08:46:15.179Z,29.83
2023-02-08T08:48:44.087Z,28.13
2023-02-08T08:51:13.028Z,28.65
2023-02-08T08:53:41.266Z,29.17
2023-02-08T08:56:11.412Z,28.98
2023-02-08T08:58:40.001Z,29.13
2023-02-08T09:01:08.241Z,25.85
2023-02-08T09:03:36.782Z,25.75
2023-02-08T09:06:05.394Z,27.55
2023-02-08T09:08:33.859Z,26.25
2023-02-08T09:11:07.106Z,25.40
2023-02-08T09:13:36.970Z,26.00
2023-02-08T09:16:10.325Z,25.98
2023-02-08T09:18:38.735Z,26.20
2023-02-08T09:21:07.841Z,27.70
2023-02-08T09:23:36.762Z,23.42
2023-02-08T09:26:05.441Z,27.02
2023-02-08T09:28:33.614Z,25.73
2023-02-08T09:31:09.803Z,24.20
2023-02-08T09:33:38.358Z,21.95
2023-02-08T09:36:08.560Z,25.42
2023-02-08T09:38:37.825Z,22.70
2023-02-08T09:41:18.500Z,20.02
2023-02-08T09:43:54.325Z,21.85
2023-02-08T09:46:27.417Z,19.58
2023-02-08T09:49:00.302Z,19.45
2023-02-08T09:51:33.075Z,18.85
2023-02-08T09:54:07.064Z,20.30
2023-02-08T09:56:40.384Z,19.05
2023-02-08T09:59:16.451Z,20.27
2023-02-08T10:01:48.415Z,19.73
2023-02-08T10:04:23.420Z,17.55
2023-02-08T10:06:51.944Z,17.55
2023-02-08T10:09:26.423Z,16.63
2023-02-08T10:12:05.680Z,17.42
2023-02-08T10:14:55.327Z,19.88
2023-02-08T10:18:09.627Z,17.63
2023-02-08T10:20:48.911Z,19.52
2023-02-08T10:23:32.429Z,19.80
2023-02-08T10:26:24.603Z,20.25
2023-02-08T10:29:04.737Z,17.50
2023-02-08T10:31:46.295Z,18.38
2023-02-08T10:34:27.590Z,17.27
2023-02-08T10:36:57.041Z,19.98
2023-02-08T10:39:29.391Z,16.10
2023-02-08T10:41:57.991Z,14.70
2023-02-08T10:44:34.999Z,16.88
2023-02-08T10:47:12.986Z,14.73
2023-02-08T10:49:52.055Z,12.80
2023-02-08T10:52:20.877Z,12.95
2023-02-08T10:54:49.078Z,12.38
2023-02-08T10:57:21.859Z,12.13
2023-02-08T10:59:52.761Z,11.40
2023-02-08T11:02:26.567Z,10.50
2023-02-08T11:05:04.439Z,12.15
2023-02-08T11:07:36.313Z,11.82
2023-02-08T11:10:24.193Z,14.10
2023-02-08T11:12:58.503Z,11.38
2023-02-08T11:15:28.866Z,12.48
2023-02-08T11:18:01.279Z,11.70
2023-02-08T11:20:37.654Z,10.63
2023-02-08T11:23:07.328Z,12.73
2023-02-08T11:25:38.641Z,12.93
2023-02-08T11:28:22.610Z,11.80
2023-02-08T11:33:26.902Z,12.93
2023-02-08T11:36:02.823Z,11.02
2023-02-08T11:38:32.561Z,14.00
2023-02-08T11:41:03.398Z,11.57
2023-02-08T11:43:34.093Z,11.80
2023-02-08T11:46:05.512Z,10.15
2023-02-08T11:48:43.491Z,10.60
2023-02-08T11:51:15.684Z,13.27
2023-02-08T11:53:49.346Z,15.68
2023-02-08T11:59:06.913Z,14.32
2023-02-08T12:01:36.616Z,14.93
2023-02-08T12:04:07.860Z,15.15
2023-02-08T12:07:07.204Z,12.80
2023-02-08T12:10:14.858Z,7.90
2023-02-08T12:12:57.028Z,9.10
2023-02-08T12:15:40.231Z,9.75
2023-02-08T12:18:40.697Z,10.45
2023-02-08T12:21:14.071Z,9.82
2023-02-08T12:23:55.968Z,8.05
2023-02-08T12:26:43.851Z,8.48
2023-02-08T12:29:47.680Z,9.80
2023-02-08T12:32:52.158Z,9.18
2023-02-08T12:36:04.735Z,9.23
2023-02-08T12:39:25.736Z,10.65
2023-02-08T12:42:09.204Z,7.32
2023-02-08T12:44:50.558Z,6.63
2023-02-08T12:47:33.659Z,6.50
2023-02-08T12:50:11.708Z,6.43
2023-02-08T12:52:44.074Z,8.80
2023-02-08T12:55:19.532Z,7.20
2023-02-08T12:57:54.210Z,6.15
2023-02-08T13:00:26.827Z,6.80
2023-02-08T13:03:05.008Z,7.38
2023-02-08T13:05:36.890Z,6.70
2023-02-08T13:08:14.347Z,7.63
2023-02-08T13:10:45.194Z,9.38
2023-02-08T13:13:19.400Z,8.48
2023-02-08T13:15:55.361Z,6.93
2023-02-08T13:18:26.360Z,7.00
2023-02-08T13:21:01.562Z,7.85
2023-02-08T13:23:38.488Z,7.85
2023-02-08T13:26:16.497Z,7.68
2023-02-08T13:28:50.216Z,8.77
2023-02-08T13:34:01.187Z,9.13
2023-02-08T13:36:34.008Z,7.53
2023-02-08T13:39:05.425Z,8.80
2023-02-08T13:41:35.480Z,7.10
2023-02-08T13:44:07.130Z,9.55
2023-02-08T13:46:39.233Z,9.77
2023-02-08T13:49:07.658Z,9.68
2023-02-08T13:51:54.403Z,10.13
2023-02-08T13:54:23.129Z,9.05
2023-02-08T13:56:53.072Z,10.75
2023-02-08T13:59:41.363Z,10.32
2023-02-08T14:02:28.404Z,11.48
2023-02-08T14:05:35.872Z,9.60
2023-02-08T14:08:06.022Z,10.05
2023-02-08T14:10:40.943Z,9.90
2023-02-08T14:13:23.136Z,12.10
2023-02-08T14:16:29.042Z,10.45
2023-02-08T14:18:59.363Z,8.98
2023-02-08T14:21:39.304Z,10.95
2023-02-08T14:24:10.001Z,10.63
2023-02-08T14:26:39.147Z,11.60
2023-02-08T14:29:08.407Z,9.75
2023-02-08T14:31:46.239Z,9.27
2023-02-08T14:34:30.944Z,8.98
2023-02-08T14:37:04.394Z,10.23
2023-02-08T14:39:34.861Z,8.73
2023-02-08T14:42:07.271Z,9.32
2023-02-08T14:45:03.985Z,11.40
2023-02-08T14:48:23.308Z,13.50
2023-02-08T14:51:04.102Z,10.20
2023-02-08T14:53:44.052Z,11.35
2023-02-08T14:56:22.727Z,9.18
2023-02-08T14:58:54.532Z,10.30
2023-02-08T15:01:27.582Z,8.70
2023-02-08T15:04:00.531Z,9.98
2023-02-08T15:07:03.262Z,7.80
2023-02-08T15:09:37.223Z,10.65
2023-02-08T15:12:09.752Z,8.68
2023-02-08T15:14:41.195Z,7.43
2023-02-08T15:17:21.725Z,8.35
2023-02-08T15:19:51.997Z,6.97
2023-02-08T15:22:32.270Z,9.00
2023-02-08T15:25:05.736Z,8.73
2023-02-08T15:27:35.715Z,9.98
2023-02-08T15:30:03.986Z,7.93
2023-02-08T15:32:32.242Z,9.60
2023-02-08T15:35:03.288Z,8.23
2023-02-08T15:37:35.042Z,8.95
2023-02-08T15:40:05.395Z,9.32
2023-02-08T15:42:35.271Z,8.13
2023-02-08T15:45:04.545Z,7.65
2023-02-08T15:47:36.233Z,7.95
2023-02-08T15:50:06.135Z,9.63
2023-02-08T15:52:37.866Z,9.70
2023-02-08T15:55:13.558Z,8.50
2023-02-08T15:57:46.506Z,8.95
2023-02-08T16:00:19.351Z,8.60
2023-02-08T16:02:54.912Z,7.97
2023-02-08T16:05:26.317Z,7.38
2023-02-08T16:07:55.699Z,11.00
2023-02-08T16:10:33.644Z,12.48
2023-02-08T16:13:04.299Z,9.00
2023-02-08T16:15:37.969Z,9.73
2023-02-08T16:20:36.754Z,11.07
2023-02-08T16:23:23.057Z,11.73
2023-02-08T16:25:53.000Z,9.85
2023-02-08T16:28:29.066Z,10.23
2023-02-08T16:30:59.470Z,12.77
2023-02-08T16:33:28.240Z,10.32
2023-02-08T16:36:02.241Z,10.70
2023-02-08T16:38:32.216Z,9.20
2023-02-08T16:41:13.178Z,9.68
2023-02-08T16:43:44.053Z,10.65
2023-02-08T16:46:25.435Z,8.45
2023-02-08T16:48:55.868Z,8.93
2023-02-08T16:51:27.106Z,10.25
2023-02-08T16:53:57.770Z,12.32
2023-02-08T16:56:27.689Z,10.75
2023-02-08T16:58:56.376Z,12.20
2023-02-08T17:01:25.071Z,10.68
2023-02-08T17:03:54.859Z,11.50
2023-02-08T17:06:30.817Z,10.02
2023-02-08T17:08:59.675Z,10.90
2023-02-08T17:11:30.358Z,13.00
2023-02-08T17:13:58.963Z,11.48
2023-02-08T17:16:30.332Z,13.02
2023-02-08T17:18:59.518Z,8.65
2023-02-08T17:21:29.260Z,10.95
2023-02-08T17:23:58.081Z,9.45
2023-02-08T17:26:29.314Z,10.00
2023-02-08T17:28:59.821Z,11.20
2023-02-08T17:31:29.277Z,9.65
2023-02-08T17:34:04.470Z,10.35
2023-02-08T17:36:33.687Z,9.98
2023-02-08T17:39:02.696Z,9.43
2023-02-08T17:41:32.552Z,10.32
2023-02-08T17:44:00.877Z,11.60
2023-02-08T17:46:30.521Z,11.90
2023-02-08T17:49:01.818Z,10.90
2023-02-08T17:51:30.846Z,16.02
2023-02-08T17:53:59.138Z,13.85
2023-02-08T17:56:31.572Z,12.20
2023-02-08T17:59:01.871Z,10.63
2023-02-08T18:01:30.782Z,16.88
2023-02-08T18:04:01.683Z,11.27
2023-02-08T18:06:30.150Z,12.48
2023-02-08T18:08:58.362Z,14.77
2023-02-08T18:11:27.073Z,12.85
2023-02-08T18:13:55.466Z,12.20
2023-02-08T18:16:26.862Z,11.43
2023-02-08T18:18:57.107Z,13.30
2023-02-08T18:21:26.665Z,13.23
2023-02-08T18:23:55.940Z,11.57
2023-02-08T18:26:26.147Z,14.55
2023-02-08T18:28:54.972Z,14.45
2023-02-08T18:31:25.461Z,15.48
2023-02-08T18:33:54.524Z,13.43
2023-02-08T18:36:23.864Z,11.75
2023-02-08T18:38:55.878Z,14.05
2023-02-08T18:41:26.340Z,15.40
2023-02-08T18:43:56.396Z,13.02
2023-02-08T18:46:27.798Z,11.73
2023-02-08T18:48:56.559Z,13.45
2023-02-08T18:51:27.328Z,13.05
2023-02-08T18:53:57.261Z,14.55
2023-02-08T18:56:27.603Z,13.38
2023-02-08T18:58:58.828Z,14.18
2023-02-08T19:01:28.892Z,14.15
2023-02-08T19:03:57.286Z,14.18
2023-02-08T19:06:27.224Z,13.30
2023-02-08T19:08:58.540Z,16.35
2023-02-08T19:11:29.394Z,15.00
2023-02-08T19:13:59.070Z,14.05
2023-02-08T19:16:30.438Z,16.08
2023-02-08T19:19:00.399Z,17.35
2023-02-08T19:21:29.907Z,16.88
2023-02-08T19:24:00.814Z,18.77
2023-02-08T19:26:32.695Z,16.42
2023-02-08T19:29:03.500Z,21.50
2023-02-08T19:31:33.756Z,18.85
2023-02-08T19:34:03.569Z,18.67
2023-02-08T19:36:34.895Z,18.17
2023-02-08T19:39:03.579Z,17.83
2023-02-08T19:41:33.501Z,17.88
2023-02-08T19:44:04.801Z,19.02
2023-02-08T19:46:35.816Z,15.48
2023-02-08T19:49:04.193Z,17.13
2023-02-08T19:51:34.859Z,18.67
2023-02-08T19:54:06.310Z,18.27
2023-02-08T19:56:35.452Z,23.52
2023-02-08T19:59:05.121Z,20.88
2023-02-08T20:01:36.355Z,19.75
2023-02-08T20:04:05.840Z,18.75
2023-02-08T20:06:35.893Z,19.55
2023-02-08T20:09:05.551Z,18.20
2023-02-08T20:11:37.125Z,18.30
2023-02-08T20:14:08.333Z,19.50
2023-02-08T20:16:38.118Z,20.02
2023-02-08T20:19:06.790Z,16.95
2023-02-08T20:21:39.772Z,19.77
2023-02-08T20:24:09.891Z,17.58
2023-02-08T20:26:41.188Z,17.73
2023-02-08T20:29:10.896Z,17.45
2023-02-08T20:31:43.598Z,22.35
2023-02-08T20:34:15.365Z,21.30
2023-02-08T20:36:57.485Z,17.92
2023-02-08T20:39:33.623Z,17.13
2023-02-08T20:42:02.224Z,16.70
2023-02-08T20:44:31.543Z,19.30
2023-02-08T20:47:01.819Z,20.90
2023-02-08T20:49:32.558Z,19.40
2023-02-08T20:52:01.384Z,18.38
2023-02-08T20:54:29.901Z,19.08
2023-02-08T20:56:58.934Z,19.13
2023-02-08T20:59:27.231Z,26.80
2023-02-08T21:01:55.725Z,29.88
2023-02-08T21:04:27.388Z,27.40
2023-02-08T21:06:55.699Z,29.27
2023-02-08T21:09:24.520Z,27.13
2023-02-08T21:11:53.421Z,27.33
2023-02-08T21:14:23.597Z,24.13
2023-02-08T21:16:55.976Z,24.40
2023-02-08T21:19:26.897Z,20.27
2023-02-08T21:21:57.280Z,26.00
2023-02-08T21:24:26.128Z,25.40
2023-02-08T21:26:55.227Z,23.50
2023-02-08T21:29:24.691Z,21.52
2023-02-08T21:31:54.673Z,22.77
2023-02-08T21:34:23.169Z,22.67
2023-02-08T21:36:53.433Z,21.02
2023-02-08T21:39:24.395Z,20.88
2023-02-08T21:41:55.656Z,19.77
2023-02-08T21:44:23.907Z,21.33
2023-02-08T21:46:52.165Z,22.25
2023-02-08T21:49:37.889Z,20.08
2023-02-08T21:52:24.731Z,17.90
2023-02-08T21:54:54.249Z,20.77
2023-02-08T21:57:24.297Z,21.10
2023-02-08T21:59:54.208Z,23.05
2023-02-08T22:02:25.964Z,19.33
2023-02-08T22:05:12.538Z,20.75
2023-02-08T22:07:48.123Z,21.23
2023-02-08T22:10:18.354Z,22.95
2023-02-08T22:12:47.361Z,21.60
2023-02-08T22:15:18.354Z,21.58
2023-02-08T22:17:47.330Z,20.25
2023-02-08T22:20:16.577Z,21.00
2023-02-08T22:22:46.668Z,22.33
2023-02-08T22:25:15.544Z,23.00
2023-02-08T22:27:43.715Z,25.00
2023-02-08T22:30:17.232Z,25.42
2023-02-08T22:32:48.020Z,25.00
2023-02-08T22:35:18.340Z,23.88
2023-02-08T22:37:48.279Z,23.63
2023-02-08T22:40:16.605Z,20.08
2023-02-08T22:42:44.923Z,24.50
2023-02-08T22:45:13.680Z,25.38
2023-02-08T22:47:41.953Z,22.52
2023-02-08T22:50:11.093Z,23.08
2023-02-08T22:52:39.539Z,25.00
2023-02-08T22:55:09.752Z,23.67
2023-02-08T22:57:38.471Z,23.55
2023-02-08T23:00:09.575Z,22.63
2023-02-08T23:02:37.909Z,24.10
2023-02-08T23:05:06.874Z,23.73
2023-02-08T23:07:35.213Z,21.55
2023-02-08T23:10:03.591Z,23.35
2023-02-08T23:12:33.557Z,21.60
2023-02-08T23:15:02.303Z,23.52
2023-02-08T23:17:30.547Z,21.05
2023-02-08T23:19:59.010Z,23.10
2023-02-08T23:22:27.464Z,24.40
2023-02-08T23:24:55.961Z,24.30
2023-02-08T23:27:24.301Z,24.13
2023-02-08T23:29:54.207Z,25.23
2023-02-08T23:32:22.411Z,29.48
2023-02-08T23:34:50.966Z,30.75
2023-02-08T23:37:19.353Z,31.50
2023-02-08T23:39:47.802Z,27.02
2023-02-08T23:42:26.599Z,24.25
2023-02-08T23:44:57.968Z,26.17
2023-02-08T23:47:27.474Z,26.58
2023-02-08T23:49:56.131Z,26.05
2023-02-08T23:52:24.358Z,23.63
2023-02-08T23:54:52.948Z,26.05
2023-02-08T23:57:21.525Z,26.25
2023-02-08T23:59:50.246Z,28.13
